Campaign, Tennessee
Current Conditions -  °F | °C
As of 8:15 AM on Monday 24 Nov 2014 (Local Time) from KRNC Reporting Station
Few Clouds Few Clouds  
Wind Chill: 64°   Ceiling: Unl
Heat Index: 64°   Visibility: 10mi
Dew Point: 54°   Wind: 15mph
Humidity: 68%   Direction: 220°SW
Pressure: 29.66"   Gusts: 30mph
Location:  35.77°N, 85.63°W
Report Text: KRNC 241415Z AUTO 22013G26KT 10SM FEW034 18/12 A2966 RMK
Loading
Personal Weather Stations






























Interactive Weather Map New forecast layout! Learn more

10-Day Weather Forecast

Advertisements
Track Severe Weather on mobile